createdAt,value
2023-01-13T00:01:10.098Z,64.79
2023-01-13T00:03:37.296Z,64.46
2023-01-13T00:06:04.878Z,65.38
2023-01-13T00:08:32.408Z,65.34
2023-01-13T00:10:59.668Z,64.70
2023-01-13T00:13:28.832Z,64.78
2023-01-13T00:16:00.140Z,65.47
2023-01-13T00:18:27.464Z,65.37
2023-01-13T00:21:11.357Z,65.76
2023-01-13T00:23:38.074Z,65.33
2023-01-13T00:26:07.864Z,65.74
2023-01-13T00:28:34.440Z,66.55
2023-01-13T00:31:09.807Z,65.61
2023-01-13T00:33:36.917Z,66.05
2023-01-13T00:36:05.948Z,65.76
2023-01-13T00:38:34.181Z,66.57
2023-01-13T00:41:06.511Z,65.86
2023-01-13T00:43:34.778Z,65.81
2023-01-13T00:46:02.411Z,66.08
2023-01-13T00:48:30.069Z,65.76
2023-01-13T00:50:58.511Z,65.91
2023-01-13T00:53:26.017Z,65.54
2023-01-13T00:56:03.882Z,65.60
2023-01-13T00:58:34.954Z,65.30
2023-01-13T01:01:03.802Z,65.26
2023-01-13T01:03:30.931Z,65.26
2023-01-13T01:06:03.282Z,66.03
2023-01-13T01:08:29.905Z,65.35
2023-01-13T01:11:08.976Z,65.94
2023-01-13T01:13:36.891Z,65.91
2023-01-13T01:16:09.019Z,65.09
2023-01-13T01:18:38.243Z,64.74
2023-01-13T01:21:05.820Z,64.54
2023-01-13T01:23:33.572Z,64.78
2023-01-13T01:26:07.224Z,65.33
2023-01-13T01:28:34.815Z,66.09
2023-01-13T01:31:07.229Z,65.42
2023-01-13T01:33:34.118Z,64.65
2023-01-13T01:36:01.814Z,64.46
2023-01-13T01:38:28.389Z,64.51
2023-01-13T01:40:55.033Z,63.62
2023-01-13T01:43:41.501Z,63.18
2023-01-13T01:46:08.085Z,63.47
2023-01-13T01:48:42.526Z,64.26
2023-01-13T01:51:13.589Z,63.63
2023-01-13T01:53:41.835Z,63.75
2023-01-13T01:56:10.882Z,63.24
2023-01-13T01:58:51.156Z,62.74
2023-01-13T02:01:18.734Z,62.38
2023-01-13T02:03:55.654Z,62.37
2023-01-13T02:06:23.748Z,63.15
2023-01-13T02:08:51.928Z,62.54
2023-01-13T02:12:06.266Z,62.18
2023-01-13T02:14:34.512Z,62.35
2023-01-13T02:17:08.123Z,62.51
2023-01-13T02:20:05.581Z,62.47
2023-01-13T02:22:53.986Z,62.38
2023-01-13T02:25:48.445Z,62.30
2023-01-13T02:28:26.943Z,62.89
2023-01-13T02:31:28.902Z,62.70
2023-01-13T02:34:09.872Z,62.73
2023-01-13T02:37:12.729Z,61.96
2023-01-13T02:39:54.439Z,61.97
2023-01-13T02:43:06.619Z,61.13
2023-01-13T02:45:43.461Z,61.65
2023-01-13T02:48:13.715Z,62.01
2023-01-13T02:50:49.427Z,61.76
2023-01-13T02:53:25.216Z,61.35
2023-01-13T02:55:54.255Z,61.88
2023-01-13T02:58:26.390Z,61.62
2023-01-13T03:00:53.372Z,61.77
2023-01-13T03:03:20.137Z,61.00
2023-01-13T03:05:49.729Z,61.82
2023-01-13T03:08:19.291Z,61.85
2023-01-13T03:11:06.656Z,61.11
2023-01-13T03:13:39.709Z,61.59
2023-01-13T03:16:24.064Z,60.71
2023-01-13T03:19:12.261Z,61.41
2023-01-13T03:21:57.051Z,61.26
2023-01-13T03:24:38.948Z,61.18
2023-01-13T03:27:15.719Z,60.79
2023-01-13T03:29:54.549Z,61.15
2023-01-13T03:32:32.524Z,60.84
2023-01-13T03:35:18.218Z,60.55
2023-01-13T03:37:51.075Z,59.96
2023-01-13T03:40:22.524Z,60.54
2023-01-13T03:43:15.122Z,61.40
2023-01-13T03:45:43.374Z,60.61
2023-01-13T03:48:16.727Z,60.05
2023-01-13T03:50:52.137Z,59.51
2023-01-13T03:53:28.129Z,60.22
2023-01-13T03:56:05.712Z,60.35
2023-01-13T03:58:43.080Z,59.32
2023-01-13T04:01:18.741Z,61.58
2023-01-13T04:03:54.331Z,60.79
2023-01-13T04:06:26.192Z,60.80
2023-01-13T04:09:03.153Z,60.29
2023-01-13T04:11:44.247Z,60.10
2023-01-13T04:14:14.022Z,60.32
2023-01-13T04:16:41.949Z,60.93
2023-01-13T04:19:08.583Z,61.10
2023-01-13T04:21:35.782Z,60.84
2023-01-13T04:24:02.420Z,60.57
2023-01-13T04:26:29.022Z,61.52
2023-01-13T04:28:55.607Z,61.18
2023-01-13T04:31:22.570Z,61.19
2023-01-13T04:33:49.190Z,61.17
2023-01-13T04:36:15.879Z,61.05
2023-01-13T04:38:42.548Z,61.00
2023-01-13T04:41:09.159Z,60.58
2023-01-13T04:43:35.755Z,60.48
2023-01-13T04:46:02.458Z,60.56
2023-01-13T04:48:29.080Z,60.13
2023-01-13T04:50:55.676Z,60.71
2023-01-13T04:53:22.251Z,60.92
2023-01-13T04:55:49.785Z,60.99
2023-01-13T04:58:16.508Z,60.80
2023-01-13T05:00:43.213Z,60.69
2023-01-13T05:03:09.971Z,60.96
2023-01-13T05:05:36.639Z,60.90
2023-01-13T05:08:03.787Z,61.04
2023-01-13T05:10:30.586Z,61.09
2023-01-13T05:13:15.934Z,61.91
2023-01-13T05:16:01.827Z,61.38
2023-01-13T05:18:30.716Z,61.54
2023-01-13T05:20:57.400Z,61.80
2023-01-13T05:23:42.433Z,61.73
2023-01-13T05:26:09.120Z,62.24
2023-01-13T05:28:35.759Z,62.16
2023-01-13T05:31:02.377Z,61.98
2023-01-13T05:33:29.023Z,62.57
2023-01-13T05:35:55.667Z,61.92
2023-01-13T05:38:22.301Z,62.35
2023-01-13T05:41:07.193Z,62.29
2023-01-13T05:43:34.953Z,61.99
2023-01-13T05:46:09.749Z,61.91
2023-01-13T05:48:42.264Z,62.02
2023-01-13T05:51:11.387Z,62.80
2023-01-13T05:53:40.748Z,62.09
2023-01-13T05:56:08.582Z,63.27
2023-01-13T05:58:35.425Z,63.29
2023-01-13T06:01:07.776Z,62.51
2023-01-13T06:03:35.082Z,63.26
2023-01-13T06:06:03.998Z,62.52
2023-01-13T06:08:31.666Z,62.45
2023-01-13T06:10:58.257Z,62.94
2023-01-13T06:13:25.539Z,62.24
2023-01-13T06:15:55.393Z,62.02
2023-01-13T06:18:22.047Z,62.64
2023-01-13T06:20:48.616Z,61.91
2023-01-13T06:23:15.234Z,62.89
2023-01-13T06:26:26.680Z,62.98
2023-01-13T06:28:53.349Z,62.17
2023-01-13T06:31:20.564Z,61.75
2023-01-13T06:33:55.344Z,63.10
2023-01-13T06:36:29.336Z,62.17
2023-01-13T06:38:59.883Z,62.30
2023-01-13T06:41:46.692Z,62.08
2023-01-13T06:44:13.677Z,62.24
2023-01-13T06:46:40.495Z,62.07
2023-01-13T06:49:07.386Z,61.72
2023-01-13T06:51:34.040Z,62.03
2023-01-13T06:54:00.668Z,62.00
2023-01-13T06:56:27.294Z,61.80
2023-01-13T06:58:53.891Z,63.28
2023-01-13T07:01:20.621Z,63.35
2023-01-13T07:03:47.333Z,62.88
2023-01-13T07:06:13.928Z,62.34
2023-01-13T07:08:40.514Z,62.54
2023-01-13T07:11:07.152Z,62.99
2023-01-13T07:13:53.713Z,62.79
2023-01-13T07:16:20.327Z,63.44
2023-01-13T07:18:46.885Z,63.33
2023-01-13T07:21:13.495Z,63.27
2023-01-13T07:23:41.441Z,63.57
2023-01-13T07:26:09.626Z,62.84
2023-01-13T07:28:37.062Z,63.38
2023-01-13T07:31:03.871Z,63.25
2023-01-13T07:33:33.540Z,62.65
2023-01-13T07:36:05.422Z,62.94
2023-01-13T07:38:33.529Z,62.55
2023-01-13T07:41:19.491Z,62.91
2023-01-13T07:43:46.066Z,63.26
2023-01-13T07:46:12.834Z,64.07
2023-01-13T07:48:39.474Z,63.77
2023-01-13T07:51:08.406Z,63.30
2023-01-13T07:53:36.075Z,62.56
2023-01-13T07:56:04.528Z,62.70
2023-01-13T07:58:33.385Z,63.22
2023-01-13T08:01:00.167Z,63.25
2023-01-13T08:03:26.992Z,64.16
2023-01-13T08:05:53.577Z,63.18
2023-01-13T08:08:20.236Z,64.57
2023-01-13T08:10:46.867Z,64.53
2023-01-13T08:13:22.701Z,64.18
2023-01-13T08:15:58.897Z,63.59
2023-01-13T08:18:25.485Z,63.11
2023-01-13T08:20:52.726Z,63.25
2023-01-13T08:23:20.611Z,62.74
2023-01-13T08:25:47.695Z,62.64
2023-01-13T08:28:15.159Z,62.90
2023-01-13T08:30:42.619Z,62.65
2023-01-13T08:33:11.251Z,62.72
2023-01-13T08:35:39.911Z,63.01
2023-01-13T08:38:08.172Z,62.96
2023-01-13T08:40:34.897Z,62.99
2023-01-13T08:43:01.568Z,63.40
2023-01-13T08:45:28.193Z,63.35
2023-01-13T08:47:54.874Z,63.95
2023-01-13T08:50:21.716Z,64.20
2023-01-13T08:52:48.362Z,63.80
2023-01-13T08:55:14.955Z,64.22
2023-01-13T08:57:41.617Z,63.55
2023-01-13T09:00:09.196Z,63.89
2023-01-13T09:02:35.809Z,65.11
2023-01-13T09:05:03.991Z,64.62
2023-01-13T09:07:31.546Z,64.52
2023-01-13T09:09:58.373Z,64.34
2023-01-13T09:12:43.871Z,64.23
2023-01-13T09:15:10.941Z,64.48
2023-01-13T09:17:37.536Z,64.26
2023-01-13T09:20:05.211Z,64.72
2023-01-13T09:22:31.999Z,64.42
2023-01-13T09:24:58.613Z,64.06
2023-01-13T09:27:25.283Z,63.71
2023-01-13T09:29:51.868Z,62.89
2023-01-13T09:32:18.474Z,63.13
2023-01-13T09:35:00.323Z,62.92
2023-01-13T09:37:37.229Z,63.14
2023-01-13T09:40:17.150Z,63.43
2023-01-13T09:43:13.629Z,64.04
2023-01-13T09:46:05.643Z,63.93
2023-01-13T09:48:52.018Z,63.16
2023-01-13T09:51:34.708Z,64.22
2023-01-13T09:54:16.589Z,63.58
2023-01-13T09:56:43.693Z,63.49
2023-01-13T09:59:12.346Z,63.46
2023-01-13T10:02:00.439Z,62.99
2023-01-13T10:04:27.925Z,63.05
2023-01-13T10:07:03.769Z,62.90
2023-01-13T10:09:33.964Z,62.67
2023-01-13T10:12:21.276Z,62.65
2023-01-13T10:14:57.157Z,63.20
2023-01-13T10:17:23.682Z,63.61
2023-01-13T10:20:00.296Z,63.58
2023-01-13T10:22:51.915Z,63.94
2023-01-13T10:25:24.731Z,62.51
2023-01-13T10:27:54.229Z,63.03
2023-01-13T10:30:32.929Z,63.09
2023-01-13T10:33:11.493Z,62.40
2023-01-13T10:36:17.982Z,61.89
2023-01-13T10:38:47.095Z,61.67
2023-01-13T10:41:25.420Z,62.04
2023-01-13T10:43:51.939Z,61.79
2023-01-13T10:46:20.497Z,61.05
2023-01-13T10:48:53.346Z,59.37
2023-01-13T10:51:22.183Z,60.14
2023-01-13T10:53:57.784Z,58.75
2023-01-13T10:56:27.640Z,59.15
2023-01-13T10:59:29.897Z,56.39
2023-01-13T11:02:26.304Z,58.30
2023-01-13T11:04:53.401Z,57.88
2023-01-13T11:07:33.915Z,56.15
2023-01-13T11:10:09.412Z,57.01
2023-01-13T11:13:01.543Z,58.82
2023-01-13T11:16:00.354Z,58.99
2023-01-13T11:19:01.979Z,59.40
2023-01-13T11:21:39.375Z,59.81
2023-01-13T11:24:15.040Z,59.35
2023-01-13T11:27:05.790Z,58.99
2023-01-13T11:29:56.672Z,59.16
2023-01-13T11:32:24.772Z,59.35
2023-01-13T11:35:00.005Z,59.29
2023-01-13T11:37:31.306Z,58.32
2023-01-13T11:40:06.849Z,58.71
2023-01-13T11:42:42.028Z,57.24
2023-01-13T11:45:17.724Z,56.96
2023-01-13T11:47:51.233Z,56.12
2023-01-13T11:50:34.704Z,55.05
2023-01-13T11:53:10.527Z,54.06
2023-01-13T11:56:06.366Z,55.14
2023-01-13T11:59:06.827Z,56.31
2023-01-13T12:01:57.870Z,56.31
2023-01-13T12:04:39.325Z,56.10
2023-01-13T12:08:04.347Z,56.23
2023-01-13T12:10:49.031Z,55.23
2023-01-13T12:13:46.571Z,55.49
2023-01-13T12:16:28.519Z,54.93
2023-01-13T12:19:24.673Z,54.07
2023-01-13T12:21:57.267Z,54.88
2023-01-13T12:24:40.836Z,55.52
2023-01-13T12:27:24.413Z,55.30
2023-01-13T12:29:58.370Z,55.67
2023-01-13T12:32:36.656Z,55.29
2023-01-13T12:35:08.689Z,53.90
2023-01-13T12:37:35.204Z,51.18
2023-01-13T12:40:39.205Z,53.96
2023-01-13T12:43:37.524Z,50.72
2023-01-13T12:46:19.130Z,51.64
2023-01-13T12:48:54.734Z,54.11
2023-01-13T12:51:23.134Z,53.86
2023-01-13T12:53:49.914Z,54.30
2023-01-13T12:56:29.848Z,53.84
2023-01-13T12:59:15.382Z,53.14
2023-01-13T13:01:42.229Z,52.98
2023-01-13T13:04:41.918Z,51.59
2023-01-13T13:07:15.524Z,52.10
2023-01-13T13:09:56.167Z,52.22
2023-01-13T13:13:07.543Z,52.07
2023-01-13T13:15:35.992Z,52.08
2023-01-13T13:18:06.269Z,52.37
2023-01-13T13:20:56.796Z,50.68
2023-01-13T13:23:26.376Z,52.52
2023-01-13T13:26:25.052Z,51.20
2023-01-13T13:29:16.434Z,48.71
2023-01-13T13:32:01.626Z,49.68
2023-01-13T13:34:32.583Z,50.52
2023-01-13T13:37:08.214Z,50.79
2023-01-13T13:39:53.945Z,50.61
2023-01-13T13:42:43.160Z,51.67
2023-01-13T13:45:36.603Z,50.84
2023-01-13T13:48:28.304Z,50.36
2023-01-13T13:51:02.675Z,51.83
2023-01-13T13:53:39.550Z,49.05
2023-01-13T13:56:16.241Z,51.07
2023-01-13T13:58:42.973Z,51.04
2023-01-13T14:01:33.000Z,50.74
2023-01-13T14:04:06.087Z,51.53
2023-01-13T14:06:33.187Z,51.89
2023-01-13T14:08:59.877Z,50.97
2023-01-13T14:11:27.770Z,51.83
2023-01-13T14:14:13.521Z,52.20
2023-01-13T14:16:41.311Z,52.44
2023-01-13T14:19:23.164Z,50.95
2023-01-13T14:21:49.818Z,45.76
2023-01-13T14:24:17.669Z,47.56
2023-01-13T14:26:44.481Z,47.13
2023-01-13T14:29:18.531Z,48.03
2023-01-13T14:31:45.499Z,48.47
2023-01-13T14:34:31.426Z,48.78
2023-01-13T14:37:00.700Z,48.88
2023-01-13T14:39:40.007Z,50.13
2023-01-13T14:42:13.256Z,49.84
2023-01-13T14:44:43.911Z,50.86
2023-01-13T14:47:28.023Z,51.31
2023-01-13T14:50:06.196Z,51.17
2023-01-13T14:52:37.338Z,51.83
2023-01-13T14:55:10.245Z,52.32
2023-01-13T14:57:41.766Z,52.74
2023-01-13T15:00:14.342Z,55.20
2023-01-13T15:02:53.579Z,61.25
2023-01-13T15:05:20.211Z,64.83
2023-01-13T15:07:59.894Z,63.87
2023-01-13T15:10:32.744Z,64.54
2023-01-13T15:13:03.048Z,65.26
2023-01-13T15:15:39.826Z,65.87
2023-01-13T15:18:13.181Z,66.17
2023-01-13T15:20:41.288Z,66.45
2023-01-13T15:23:08.456Z,66.58
2023-01-13T15:25:37.140Z,67.13
2023-01-13T15:28:05.051Z,66.17
2023-01-13T15:30:32.678Z,66.70
2023-01-13T15:33:00.033Z,67.04
2023-01-13T15:35:28.798Z,67.27
2023-01-13T15:37:57.232Z,67.39
2023-01-13T15:40:32.700Z,68.48
2023-01-13T15:43:17.859Z,68.64
2023-01-13T15:46:04.421Z,68.68
2023-01-13T15:48:32.922Z,68.48
2023-01-13T15:51:01.133Z,68.84
2023-01-13T15:53:29.031Z,67.60
2023-01-13T15:55:57.885Z,67.25
2023-01-13T15:58:28.417Z,66.51
2023-01-13T16:00:55.588Z,65.87
2023-01-13T16:03:22.667Z,66.47
2023-01-13T16:05:49.294Z,67.25
2023-01-13T16:08:17.867Z,67.98
2023-01-13T16:10:45.047Z,69.29
2023-01-13T16:13:12.649Z,69.31
2023-01-13T16:15:47.136Z,69.85
2023-01-13T16:18:24.325Z,70.20
2023-01-13T16:20:55.304Z,69.34
2023-01-13T16:23:22.841Z,68.99
2023-01-13T16:25:50.080Z,68.69
2023-01-13T16:28:20.902Z,68.43
2023-01-13T16:30:47.609Z,67.37
2023-01-13T16:33:14.432Z,66.89
2023-01-13T16:36:09.371Z,66.22
2023-01-13T16:38:27.664Z,65.60
2023-01-13T16:40:57.205Z,65.50
2023-01-13T16:43:23.786Z,65.87
2023-01-13T16:45:50.397Z,65.99
2023-01-13T16:48:20.158Z,65.86
2023-01-13T16:50:46.936Z,66.48
2023-01-13T16:53:13.542Z,67.57
2023-01-13T16:55:42.221Z,67.84
2023-01-13T16:58:20.483Z,67.36
2023-01-13T17:00:47.490Z,69.51
2023-01-13T17:03:15.387Z,70.37
2023-01-13T17:05:43.422Z,70.14
2023-01-13T17:08:17.669Z,70.72
2023-01-13T17:10:45.666Z,72.21
2023-01-13T17:13:16.401Z,72.35
2023-01-13T17:15:44.029Z,72.41
2023-01-13T17:18:11.609Z,73.85
2023-01-13T17:20:38.203Z,75.09
2023-01-13T17:23:04.817Z,74.53
2023-01-13T17:25:31.410Z,75.15
2023-01-13T17:27:58.303Z,75.69
2023-01-13T17:30:24.894Z,75.63
2023-01-13T17:32:51.526Z,75.68
2023-01-13T17:35:22.904Z,76.81
2023-01-13T17:37:49.498Z,76.80
2023-01-13T17:40:17.095Z,77.33
2023-01-13T17:42:43.710Z,77.65
2023-01-13T17:45:11.980Z,76.81
2023-01-13T17:47:38.754Z,76.58
2023-01-13T17:50:05.847Z,76.73
2023-01-13T17:52:34.469Z,75.03
2023-01-13T17:55:01.126Z,73.12
2023-01-13T17:57:28.007Z,72.84
2023-01-13T17:59:54.856Z,71.83
2023-01-13T18:02:21.580Z,70.79
2023-01-13T18:04:48.289Z,69.68
2023-01-13T18:07:14.846Z,70.17
2023-01-13T18:09:41.459Z,70.25
2023-01-13T18:12:08.194Z,69.76
2023-01-13T18:14:34.968Z,70.00
2023-01-13T18:17:01.606Z,70.21
2023-01-13T18:19:46.683Z,69.86
2023-01-13T18:22:32.280Z,69.26
2023-01-13T18:25:17.799Z,70.55
2023-01-13T18:27:44.541Z,71.71
2023-01-13T18:30:12.518Z,71.63
2023-01-13T18:32:39.215Z,73.44
2023-01-13T18:35:10.176Z,71.74
2023-01-13T18:37:40.362Z,71.53
2023-01-13T18:40:09.497Z,70.63
2023-01-13T18:42:53.617Z,69.96
2023-01-13T18:45:31.547Z,69.89
2023-01-13T18:48:00.879Z,70.73
2023-01-13T18:50:28.330Z,69.80
2023-01-13T18:52:55.095Z,69.42
2023-01-13T18:55:22.472Z,68.89
2023-01-13T18:57:49.462Z,68.58
2023-01-13T19:00:19.332Z,68.50
2023-01-13T19:02:47.447Z,68.92
2023-01-13T19:05:14.404Z,69.32
2023-01-13T19:07:41.112Z,69.62
2023-01-13T19:10:09.781Z,69.27
2023-01-13T19:12:36.712Z,70.47
2023-01-13T19:15:03.498Z,69.33
2023-01-13T19:17:34.808Z,69.49
2023-01-13T19:20:01.679Z,69.15
2023-01-13T19:22:32.717Z,69.05
2023-01-13T19:25:01.113Z,68.56
2023-01-13T19:27:28.281Z,67.69
2023-01-13T19:29:58.065Z,67.66
2023-01-13T19:32:24.842Z,67.36
2023-01-13T19:34:51.695Z,68.41
2023-01-13T19:37:19.057Z,68.00
2023-01-13T19:39:45.654Z,68.28
2023-01-13T19:42:31.836Z,68.24
2023-01-13T19:45:16.930Z,68.86
2023-01-13T19:47:45.499Z,68.29
2023-01-13T19:50:13.600Z,68.70
2023-01-13T19:52:41.444Z,69.24
2023-01-13T19:55:09.538Z,69.12
2023-01-13T19:57:36.987Z,69.60
2023-01-13T20:00:06.426Z,69.32
2023-01-13T20:02:33.107Z,68.23
2023-01-13T20:05:01.839Z,68.61
2023-01-13T20:07:30.643Z,68.93
2023-01-13T20:09:57.513Z,67.97
2023-01-13T20:12:25.829Z,68.52
2023-01-13T20:14:52.579Z,67.30
2023-01-13T20:17:21.328Z,67.02
2023-01-13T20:19:48.341Z,66.80
2023-01-13T20:22:15.303Z,66.98
2023-01-13T20:24:42.201Z,66.75
2023-01-13T20:27:08.915Z,67.01
2023-01-13T20:29:36.331Z,66.70
2023-01-13T20:32:03.340Z,66.38
2023-01-13T20:34:29.985Z,66.58
2023-01-13T20:36:56.705Z,66.92
2023-01-13T20:39:26.503Z,66.68
2023-01-13T20:42:12.368Z,66.45
2023-01-13T20:44:39.234Z,66.40
2023-01-13T20:47:06.608Z,66.28
2023-01-13T20:49:36.025Z,65.96
2023-01-13T20:52:09.105Z,65.76
2023-01-13T20:54:40.488Z,66.14
2023-01-13T20:57:09.755Z,66.60
2023-01-13T20:59:37.707Z,67.69
2023-01-13T21:02:06.471Z,67.12
2023-01-13T21:04:33.653Z,67.21
2023-01-13T21:07:00.246Z,66.73
2023-01-13T21:09:27.371Z,67.58
2023-01-13T21:12:13.117Z,67.35
2023-01-13T21:14:58.503Z,66.96
2023-01-13T21:17:43.987Z,67.35
2023-01-13T21:20:12.813Z,67.10
2023-01-13T21:22:39.619Z,68.58
2023-01-13T21:25:07.039Z,68.36
2023-01-13T21:27:34.742Z,68.60
2023-01-13T21:30:01.320Z,68.55
2023-01-13T21:32:27.937Z,68.13
2023-01-13T21:34:54.527Z,67.82
2023-01-13T21:37:22.133Z,68.20
2023-01-13T21:39:48.698Z,69.34
2023-01-13T21:42:34.809Z,69.82
2023-01-13T21:45:20.710Z,68.79
2023-01-13T21:47:48.281Z,69.21
2023-01-13T21:50:26.540Z,69.52
2023-01-13T21:52:53.152Z,69.80
2023-01-13T21:55:25.437Z,69.02
2023-01-13T21:57:58.213Z,69.10
2023-01-13T22:00:30.735Z,69.25
2023-01-13T22:02:58.635Z,69.21
2023-01-13T22:05:26.548Z,69.40
2023-01-13T22:07:53.416Z,68.70
2023-01-13T22:10:22.528Z,68.37
2023-01-13T22:12:52.011Z,68.63
2023-01-13T22:15:18.682Z,70.22
2023-01-13T22:17:48.305Z,71.39
2023-01-13T22:20:15.329Z,70.14
2023-01-13T22:22:42.007Z,71.58
2023-01-13T22:25:11.243Z,73.39
2023-01-13T22:27:43.206Z,74.55
2023-01-13T22:30:18.274Z,74.93
2023-01-13T22:32:46.056Z,74.90
2023-01-13T22:35:14.750Z,75.69
2023-01-13T22:37:41.831Z,75.40
2023-01-13T22:40:10.718Z,75.27
2023-01-13T22:42:42.078Z,75.46
2023-01-13T22:45:13.823Z,76.14
2023-01-13T22:47:40.815Z,76.75
2023-01-13T22:50:08.298Z,77.71
2023-01-13T22:52:35.234Z,78.37
2023-01-13T22:55:01.978Z,78.88
2023-01-13T22:57:36.716Z,79.68
2023-01-13T23:00:14.974Z,79.75
2023-01-13T23:02:41.735Z,80.48
2023-01-13T23:05:08.809Z,79.82
2023-01-13T23:07:36.227Z,80.42
2023-01-13T23:10:03.685Z,80.34
2023-01-13T23:12:30.283Z,79.93
2023-01-13T23:14:56.863Z,80.58
2023-01-13T23:17:23.456Z,80.06
2023-01-13T23:19:50.021Z,79.61
2023-01-13T23:22:16.615Z,79.94
2023-01-13T23:24:43.231Z,80.18
2023-01-13T23:27:09.828Z,79.14
2023-01-13T23:29:36.722Z,78.98
2023-01-13T23:32:03.398Z,79.22
2023-01-13T23:34:29.962Z,77.86
2023-01-13T23:36:56.542Z,74.67
2023-01-13T23:39:24.585Z,75.27
2023-01-13T23:41:51.259Z,75.24
2023-01-13T23:44:17.909Z,75.69
2023-01-13T23:46:44.543Z,75.01
2023-01-13T23:49:11.146Z,74.89
2023-01-13T23:51:37.811Z,75.69
2023-01-13T23:54:04.620Z,75.65
2023-01-13T23:56:31.527Z,76.40
2023-01-13T23:58:58.775Z,75.49
